Date,TemperatureHighF,TemperatureAvgF,TemperatureLowF,DewpointHighF,DewpointAvgF,DewpointLowF,HumidityHigh,HumidityAvg,HumidityLow,PressureMaxIn,PressureMinIn,WindSpeedMaxMPH,WindSpeedAvgMPH,GustSpeedMaxMPH,PrecipitationSumIn
2013-1-1,55.2,47.5,42.6,43.7,40.5,37.0,84,77,59,30.20,30.09,5,1,9,0.00
2013-1-2,51.3,49.8,46.9,42.6,40.7,38.3,80,71,64,30.29,30.09,7,3,11,0.02
2013-1-3,57.4,52.5,48.0,43.5,40.5,36.3,72,64,56,30.53,30.29,5,2,8,0.00
2013-1-4,52.9,49.4,44.1,40.8,38.3,35.6,78,66,60,30.50,30.29,8,4,10,0.00
2013-1-5,49.6,46.8,43.9,42.8,40.6,37.4,86,79,74,30.32,30.12,10,4,13,0.00
2013-1-6,57.7,51.5,46.0,45.9,42.8,37.4,91,74,55,30.23,30.12,5,1,8,0.00
2013-1-7,51.6,50.6,48.4,46.0,40.1,35.2,91,68,57,30.26,30.12,3,1,4,0.00
2013-1-8,53.1,49.6,46.6,45.0,41.8,34.9,79,75,55,30.29,30.23,4,1,7,0.00
2013-1-9,53.4,49.6,46.4,41.4,39.6,37.4,77,69,59,30.23,30.15,5,1,7,0.00
2013-1-10,49.5,47.9,46.6,44.4,43.2,38.5,89,84,69,30.15,29.85,7,1,12,0.11
2013-1-11,53.4,47.0,41.2,45.7,41.3,37.4,92,81,66,29.91,29.73,6,3,10,0.07
2013-1-12,53.4,46.0,40.1,43.2,39.5,35.2,93,78,63,30.09,29.88,5,2,10,0.00
2013-1-13,51.1,48.5,45.3,47.8,44.2,41.0,93,85,77,30.06,29.79,10,4,16,1.88
2013-1-14,50.5,48.2,45.3,47.5,43.6,37.6,94,84,74,29.94,29.73,7,2,13,0.26
2013-1-15,49.3,45.1,42.4,41.0,37.3,33.3,84,74,58,29.97,29.58,12,2,18,0.16
2013-1-16,44.6,40.1,36.1,40.6,35.4,32.0,91,84,72,29.61,29.47,10,3,22,1.18
2013-1-17,45.0,40.1,34.3,40.6,35.4,31.1,91,84,70,29.50,29.32,11,2,16,0.26
2013-1-18,41.2,36.6,33.8,34.3,31.0,28.6,96,81,67,29.67,29.38,11,5,18,0.05
2013-1-19,52.5,43.8,34.7,50.9,37.0,25.3,96,77,60,29.67,29.50,15,6,28,0.28
2013-1-20,55.6,53.3,49.5,52.9,49.7,44.1,96,88,76,29.58,29.50,14,7,26,1.03
2013-1-21,51.6,48.0,43.2,47.5,41.9,36.1,92,80,65,29.61,29.44,8,2,13,0.29
2013-1-22,48.0,45.7,41.9,43.9,38.1,32.4,89,75,62,29.82,29.55,7,2,16,0.08
2013-1-23,47.1,44.1,41.5,41.2,38.4,35.4,91,81,73,29.85,29.58,10,4,15,0.57
2013-1-24,48.7,43.6,38.5,42.6,38.4,35.1,88,82,72,29.58,29.41,7,2,15,0.09
2013-1-25,49.5,41.6,36.3,38.1,33.7,28.9,91,75,59,29.67,29.44,7,4,12,0.00
2013-1-26,46.6,39.0,34.5,32.7,29.5,27.3,80,69,56,29.88,29.61,6,2,11,0.00
2013-1-27,49.8,41.6,34.2,39.6,33.8,27.0,85,74,60,30.03,29.85,6,1,15,0.00
2013-1-28,46.6,44.3,40.3,42.1,39.7,28.2,89,84,61,30.03,29.82,10,5,19,0.52
2013-1-29,54.0,47.5,39.0,44.6,40.3,34.2,88,77,60,30.26,30.03,4,1,9,0.00
2013-1-30,56.8,51.8,44.1,48.6,44.1,38.7,92,76,60,30.26,30.17,4,2,8,0.00
2013-1-31,62.6,55.2,50.9,50.2,46.6,42.1,91,73,60,30.23,30.17,6,2,14,0.00